Airport View

Enter AWOS ICAO identifier for current METAR.

ex. KFNL

KPBI 040453Z 17003KT 10SM FEW070 FEW150 SCT250 27/26 A2997 RMK AO2 SLP149 T02670256 403280250

4 Aug 2020 05:07

Frequency: 123.75

Phone: 561-683-2548

Other Area AWOS: KLNA - KBCT - KPMP - KFXE

TAF AMD KPBI 040241Z 0403/0424 VRB03KT P6SM SCT030 SCT060 FM041300 23005KT P6SM FEW035 SCT060 FM041900 15010KT P6SM VCTS SCT035CB BKN050